sensor_id;sensor_type;location;lat;lon;timestamp;temperature;humidity
74416;SHT31;62850;42.428;25.618;2023-03-01T00:01:19;6.51;85.31
74416;SHT31;62850;42.428;25.618;2023-03-01T00:03:45;6.51;85.29
74416;SHT31;62850;42.428;25.618;2023-03-01T00:06:10;6.47;85.64
74416;SHT31;62850;42.428;25.618;2023-03-01T00:08:36;6.44;85.64
74416;SHT31;62850;42.428;25.618;2023-03-01T00:11:21;6.49;85.82
74416;SHT31;62850;42.428;25.618;2023-03-01T00:13:48;6.50;85.57
74416;SHT31;62850;42.428;25.618;2023-03-01T00:16:21;6.58;85.50
74416;SHT31;62850;42.428;25.618;2023-03-01T00:18:47;6.64;85.95
74416;SHT31;62850;42.428;25.618;2023-03-01T00:21:13;6.69;85.85
74416;SHT31;62850;42.428;25.618;2023-03-01T00:23:38;6.70;85.69
74416;SHT31;62850;42.428;25.618;2023-03-01T00:26:12;6.69;85.97
74416;SHT31;62850;42.428;25.618;2023-03-01T00:28:38;6.77;85.68
74416;SHT31;62850;42.428;25.618;2023-03-01T00:31:05;6.81;85.44
74416;SHT31;62850;42.428;25.618;2023-03-01T00:33:31;6.81;85.50
74416;SHT31;62850;42.428;25.618;2023-03-01T00:36:00;6.69;85.01
74416;SHT31;62850;42.428;25.618;2023-03-01T00:38:26;6.61;85.24
74416;SHT31;62850;42.428;25.618;2023-03-01T00:40:52;6.71;84.90
74416;SHT31;62850;42.428;25.618;2023-03-01T00:43:18;6.79;85.29
74416;SHT31;62850;42.428;25.618;2023-03-01T00:45:43;6.76;84.95
74416;SHT31;62850;42.428;25.618;2023-03-01T00:48:09;6.79;84.76
74416;SHT31;62850;42.428;25.618;2023-03-01T00:50:34;6.85;84.84
74416;SHT31;62850;42.428;25.618;2023-03-01T00:53:00;6.81;84.94
74416;SHT31;62850;42.428;25.618;2023-03-01T00:55:25;6.79;84.50
74416;SHT31;62850;42.428;25.618;2023-03-01T00:57:54;6.84;84.42
74416;SHT31;62850;42.428;25.618;2023-03-01T01:00:20;6.84;84.41
74416;SHT31;62850;42.428;25.618;2023-03-01T01:02:46;6.84;84.62
74416;SHT31;62850;42.428;25.618;2023-03-01T01:05:11;6.80;84.60
74416;SHT31;62850;42.428;25.618;2023-03-01T01:07:37;6.70;84.29
74416;SHT31;62850;42.428;25.618;2023-03-01T01:10:03;6.67;84.43
74416;SHT31;62850;42.428;25.618;2023-03-01T01:12:29;6.64;84.80
74416;SHT31;62850;42.428;25.618;2023-03-01T01:14:54;6.70;85.08
74416;SHT31;62850;42.428;25.618;2023-03-01T01:17:20;6.67;85.18
74416;SHT31;62850;42.428;25.618;2023-03-01T01:19:45;6.67;85.02
74416;SHT31;62850;42.428;25.618;2023-03-01T01:22:11;6.73;85.26
74416;SHT31;62850;42.428;25.618;2023-03-01T01:24:36;6.74;85.00
74416;SHT31;62850;42.428;25.618;2023-03-01T01:27:02;6.76;84.91
74416;SHT31;62850;42.428;25.618;2023-03-01T01:29:27;6.73;85.07
74416;SHT31;62850;42.428;25.618;2023-03-01T01:31:53;6.67;84.67
74416;SHT31;62850;42.428;25.618;2023-03-01T01:34:20;6.58;85.21
74416;SHT31;62850;42.428;25.618;2023-03-01T01:36:50;6.54;85.27
74416;SHT31;62850;42.428;25.618;2023-03-01T01:39:16;6.53;85.93
74416;SHT31;62850;42.428;25.618;2023-03-01T01:41:42;6.53;85.94
74416;SHT31;62850;42.428;25.618;2023-03-01T01:47:02;6.47;85.70
74416;SHT31;62850;42.428;25.618;2023-03-01T01:52:27;6.57;85.80
74416;SHT31;62850;42.428;25.618;2023-03-01T01:55:06;6.61;85.28
74416;SHT31;62850;42.428;25.618;2023-03-01T01:57:38;6.66;85.62
74416;SHT31;62850;42.428;25.618;2023-03-01T02:00:11;6.69;85.59
74416;SHT31;62850;42.428;25.618;2023-03-01T02:02:38;6.67;85.69
74416;SHT31;62850;42.428;25.618;2023-03-01T02:08:13;6.76;85.24
74416;SHT31;62850;42.428;25.618;2023-03-01T02:10:41;6.79;85.47
74416;SHT31;62850;42.428;25.618;2023-03-01T02:13:06;6.79;84.99
74416;SHT31;62850;42.428;25.618;2023-03-01T02:15:36;6.80;85.16
74416;SHT31;62850;42.428;25.618;2023-03-01T02:18:04;6.76;84.70
74416;SHT31;62850;42.428;25.618;2023-03-01T02:22:55;6.66;85.18
74416;SHT31;62850;42.428;25.618;2023-03-01T02:25:35;6.76;85.37
74416;SHT31;62850;42.428;25.618;2023-03-01T02:30:43;6.83;85.07
74416;SHT31;62850;42.428;25.618;2023-03-01T02:33:29;6.80;84.84
74416;SHT31;62850;42.428;25.618;2023-03-01T02:36:00;6.87;84.72
74416;SHT31;62850;42.428;25.618;2023-03-01T02:38:27;6.90;84.77
74416;SHT31;62850;42.428;25.618;2023-03-01T02:40:54;6.87;84.79
74416;SHT31;62850;42.428;25.618;2023-03-01T02:43:23;6.74;84.95
74416;SHT31;62850;42.428;25.618;2023-03-01T02:45:50;6.83;85.07
74416;SHT31;62850;42.428;25.618;2023-03-01T02:48:17;6.88;84.89
74416;SHT31;62850;42.428;25.618;2023-03-01T02:53:48;6.90;84.16
74416;SHT31;62850;42.428;25.618;2023-03-01T02:56:18;6.87;84.06
74416;SHT31;62850;42.428;25.618;2023-03-01T02:58:44;6.91;84.24
74416;SHT31;62850;42.428;25.618;2023-03-01T03:01:18;6.91;84.08
74416;SHT31;62850;42.428;25.618;2023-03-01T03:03:44;6.80;84.16
74416;SHT31;62850;42.428;25.618;2023-03-01T03:06:09;6.74;84.32
74416;SHT31;62850;42.428;25.618;2023-03-01T03:08:35;6.81;84.20
74416;SHT31;62850;42.428;25.618;2023-03-01T03:11:03;6.84;84.14
74416;SHT31;62850;42.428;25.618;2023-03-01T03:13:29;6.91;84.21
74416;SHT31;62850;42.428;25.618;2023-03-01T03:15:57;6.84;84.10
74416;SHT31;62850;42.428;25.618;2023-03-01T03:18:24;6.87;84.02
74416;SHT31;62850;42.428;25.618;2023-03-01T03:20:53;6.87;84.09
74416;SHT31;62850;42.428;25.618;2023-03-01T03:23:20;6.87;83.94
74416;SHT31;62850;42.428;25.618;2023-03-01T03:25:48;6.80;84.22
74416;SHT31;62850;42.428;25.618;2023-03-01T03:28:14;6.80;84.27
74416;SHT31;62850;42.428;25.618;2023-03-01T03:30:41;6.74;84.37
74416;SHT31;62850;42.428;25.618;2023-03-01T03:33:08;6.88;83.69
74416;SHT31;62850;42.428;25.618;2023-03-01T03:35:46;6.83;83.80
74416;SHT31;62850;42.428;25.618;2023-03-01T03:38:13;6.79;84.09
74416;SHT31;62850;42.428;25.618;2023-03-01T03:40:47;6.74;84.22
74416;SHT31;62850;42.428;25.618;2023-03-01T03:43:14;6.88;83.86
74416;SHT31;62850;42.428;25.618;2023-03-01T03:46:18;6.79;83.84
74416;SHT31;62850;42.428;25.618;2023-03-01T03:48:44;6.74;84.12
74416;SHT31;62850;42.428;25.618;2023-03-01T03:51:12;6.77;84.19
74416;SHT31;62850;42.428;25.618;2023-03-01T03:53:37;6.74;84.39
74416;SHT31;62850;42.428;25.618;2023-03-01T03:58:51;6.66;84.78
74416;SHT31;62850;42.428;25.618;2023-03-01T04:01:17;6.64;85.18
74416;SHT31;62850;42.428;25.618;2023-03-01T04:03:42;6.74;84.96
74416;SHT31;62850;42.428;25.618;2023-03-01T04:06:12;6.70;84.58
74416;SHT31;62850;42.428;25.618;2023-03-01T04:08:38;6.71;84.96
74416;SHT31;62850;42.428;25.618;2023-03-01T04:11:05;6.77;84.99
74416;SHT31;62850;42.428;25.618;2023-03-01T04:13:49;6.73;84.70
74416;SHT31;62850;42.428;25.618;2023-03-01T04:16:15;6.61;84.58
74416;SHT31;62850;42.428;25.618;2023-03-01T04:18:41;6.57;84.93
74416;SHT31;62850;42.428;25.618;2023-03-01T04:21:06;6.70;84.75
74416;SHT31;62850;42.428;25.618;2023-03-01T04:23:32;6.63;84.65
74416;SHT31;62850;42.428;25.618;2023-03-01T04:25:58;6.49;84.80
74416;SHT31;62850;42.428;25.618;2023-03-01T04:28:31;6.50;85.25
74416;SHT31;62850;42.428;25.618;2023-03-01T04:31:03;6.69;84.70
74416;SHT31;62850;42.428;25.618;2023-03-01T04:33:39;6.67;84.79
74416;SHT31;62850;42.428;25.618;2023-03-01T04:36:05;6.64;84.46
74416;SHT31;62850;42.428;25.618;2023-03-01T04:38:34;6.67;84.59
74416;SHT31;62850;42.428;25.618;2023-03-01T04:41:00;6.66;84.80
74416;SHT31;62850;42.428;25.618;2023-03-01T04:43:25;6.71;84.94
74416;SHT31;62850;42.428;25.618;2023-03-01T04:45:51;6.71;84.79
74416;SHT31;62850;42.428;25.618;2023-03-01T04:48:16;6.67;85.11
74416;SHT31;62850;42.428;25.618;2023-03-01T04:50:41;6.69;85.24
74416;SHT31;62850;42.428;25.618;2023-03-01T04:53:07;6.70;84.76
74416;SHT31;62850;42.428;25.618;2023-03-01T04:55:33;6.76;84.67
74416;SHT31;62850;42.428;25.618;2023-03-01T04:57:59;6.71;84.83
74416;SHT31;62850;42.428;25.618;2023-03-01T05:00:24;6.73;84.79
74416;SHT31;62850;42.428;25.618;2023-03-01T05:02:58;6.69;85.12
74416;SHT31;62850;42.428;25.618;2023-03-01T05:07:56;6.73;84.72
74416;SHT31;62850;42.428;25.618;2023-03-01T05:10:22;6.77;84.14
74416;SHT31;62850;42.428;25.618;2023-03-01T05:12:48;6.74;83.64
74416;SHT31;62850;42.428;25.618;2023-03-01T05:15:13;6.83;84.08
74416;SHT31;62850;42.428;25.618;2023-03-01T05:17:39;6.85;83.92
74416;SHT31;62850;42.428;25.618;2023-03-01T05:20:05;6.85;83.89
74416;SHT31;62850;42.428;25.618;2023-03-01T05:22:34;6.83;83.53
74416;SHT31;62850;42.428;25.618;2023-03-01T05:25:00;6.83;83.72
74416;SHT31;62850;42.428;25.618;2023-03-01T05:27:26;6.90;83.49
74416;SHT31;62850;42.428;25.618;2023-03-01T05:29:52;6.94;83.18
74416;SHT31;62850;42.428;25.618;2023-03-01T05:32:17;7.00;83.22
74416;SHT31;62850;42.428;25.618;2023-03-01T05:34:43;6.91;83.45
74416;SHT31;62850;42.428;25.618;2023-03-01T05:37:09;6.95;83.37
74416;SHT31;62850;42.428;25.618;2023-03-01T05:39:34;6.97;83.74
74416;SHT31;62850;42.428;25.618;2023-03-01T05:42:01;7.01;83.72
74416;SHT31;62850;42.428;25.618;2023-03-01T05:44:27;6.97;82.81
74416;SHT31;62850;42.428;25.618;2023-03-01T05:46:53;6.94;83.15
74416;SHT31;62850;42.428;25.618;2023-03-01T05:49:19;6.95;83.26
74416;SHT31;62850;42.428;25.618;2023-03-01T05:51:49;7.00;83.15
74416;SHT31;62850;42.428;25.618;2023-03-01T05:54:15;6.98;82.85
74416;SHT31;62850;42.428;25.618;2023-03-01T05:56:41;7.01;82.81
74416;SHT31;62850;42.428;25.618;2023-03-01T05:59:06;7.14;82.56
74416;SHT31;62850;42.428;25.618;2023-03-01T06:01:33;7.21;82.24
74416;SHT31;62850;42.428;25.618;2023-03-01T06:03:58;7.21;82.25
74416;SHT31;62850;42.428;25.618;2023-03-01T06:06:24;7.29;82.22
74416;SHT31;62850;42.428;25.618;2023-03-01T06:08:50;7.35;82.04
74416;SHT31;62850;42.428;25.618;2023-03-01T06:11:16;7.36;82.01
74416;SHT31;62850;42.428;25.618;2023-03-01T06:13:42;7.42;81.62
74416;SHT31;62850;42.428;25.618;2023-03-01T06:16:08;7.46;81.64
74416;SHT31;62850;42.428;25.618;2023-03-01T06:18:34;7.43;81.72
74416;SHT31;62850;42.428;25.618;2023-03-01T06:20:59;7.46;81.95
74416;SHT31;62850;42.428;25.618;2023-03-01T06:23:25;7.58;82.00
74416;SHT31;62850;42.428;25.618;2023-03-01T06:25:51;7.63;81.68
74416;SHT31;62850;42.428;25.618;2023-03-01T06:28:16;7.56;81.62
74416;SHT31;62850;42.428;25.618;2023-03-01T06:30:42;7.49;81.28
74416;SHT31;62850;42.428;25.618;2023-03-01T06:33:07;7.53;81.33
74416;SHT31;62850;42.428;25.618;2023-03-01T06:35:33;7.50;81.54
74416;SHT31;62850;42.428;25.618;2023-03-01T06:38:00;7.49;81.28
74416;SHT31;62850;42.428;25.618;2023-03-01T06:40:26;7.52;81.61
74416;SHT31;62850;42.428;25.618;2023-03-01T06:42:52;7.43;81.75
74416;SHT31;62850;42.428;25.618;2023-03-01T06:45:18;7.52;81.75
74416;SHT31;62850;42.428;25.618;2023-03-01T06:47:45;7.49;81.63
74416;SHT31;62850;42.428;25.618;2023-03-01T06:50:11;7.41;81.39
74416;SHT31;62850;42.428;25.618;2023-03-01T06:52:36;7.36;81.34
74416;SHT31;62850;42.428;25.618;2023-03-01T06:55:03;7.32;81.86
74416;SHT31;62850;42.428;25.618;2023-03-01T06:57:28;7.32;81.77
74416;SHT31;62850;42.428;25.618;2023-03-01T06:59:54;7.36;81.73
74416;SHT31;62850;42.428;25.618;2023-03-01T07:02:19;7.31;81.95
74416;SHT31;62850;42.428;25.618;2023-03-01T07:04:45;7.32;81.43
74416;SHT31;62850;42.428;25.618;2023-03-01T07:07:10;7.26;81.50
74416;SHT31;62850;42.428;25.618;2023-03-01T07:09:36;7.23;81.54
74416;SHT31;62850;42.428;25.618;2023-03-01T07:12:02;7.28;81.46
74416;SHT31;62850;42.428;25.618;2023-03-01T07:14:27;7.28;81.45
74416;SHT31;62850;42.428;25.618;2023-03-01T07:16:53;7.31;81.14
74416;SHT31;62850;42.428;25.618;2023-03-01T07:19:19;7.42;81.00
74416;SHT31;62850;42.428;25.618;2023-03-01T07:21:45;7.45;81.10
74416;SHT31;62850;42.428;25.618;2023-03-01T07:24:10;7.48;81.28
74416;SHT31;62850;42.428;25.618;2023-03-01T07:26:36;7.55;81.30
74416;SHT31;62850;42.428;25.618;2023-03-01T07:29:04;7.59;80.52
74416;SHT31;62850;42.428;25.618;2023-03-01T07:31:30;7.69;80.06
74416;SHT31;62850;42.428;25.618;2023-03-01T07:33:56;7.67;79.45
74416;SHT31;62850;42.428;25.618;2023-03-01T07:36:22;7.66;79.45
74416;SHT31;62850;42.428;25.618;2023-03-01T07:38:47;7.63;79.47
74416;SHT31;62850;42.428;25.618;2023-03-01T07:41:13;7.73;79.37
74416;SHT31;62850;42.428;25.618;2023-03-01T07:43:38;7.79;79.24
74416;SHT31;62850;42.428;25.618;2023-03-01T07:46:04;7.66;79.82
74416;SHT31;62850;42.428;25.618;2023-03-01T07:48:30;7.65;80.09
74416;SHT31;62850;42.428;25.618;2023-03-01T07:51:04;7.69;79.79
74416;SHT31;62850;42.428;25.618;2023-03-01T07:53:30;7.66;78.88
74416;SHT31;62850;42.428;25.618;2023-03-01T07:56:06;7.60;79.19
74416;SHT31;62850;42.428;25.618;2023-03-01T07:58:37;7.63;79.65
74416;SHT31;62850;42.428;25.618;2023-03-01T08:01:04;7.69;79.31
74416;SHT31;62850;42.428;25.618;2023-03-01T08:03:29;7.62;79.08
74416;SHT31;62850;42.428;25.618;2023-03-01T08:05:55;7.59;78.95
74416;SHT31;62850;42.428;25.618;2023-03-01T08:08:21;7.55;79.10
74416;SHT31;62850;42.428;25.618;2023-03-01T08:10:46;7.62;78.87
74416;SHT31;62850;42.428;25.618;2023-03-01T08:13:12;7.62;79.15
74416;SHT31;62850;42.428;25.618;2023-03-01T08:15:37;7.63;79.33
74416;SHT31;62850;42.428;25.618;2023-03-01T08:18:03;7.71;78.73
74416;SHT31;62850;42.428;25.618;2023-03-01T08:20:28;7.71;78.71
74416;SHT31;62850;42.428;25.618;2023-03-01T08:22:54;7.65;79.01
74416;SHT31;62850;42.428;25.618;2023-03-01T08:25:20;7.63;79.42
74416;SHT31;62850;42.428;25.618;2023-03-01T08:27:45;7.67;79.45
74416;SHT31;62850;42.428;25.618;2023-03-01T08:30:11;7.80;79.27
74416;SHT31;62850;42.428;25.618;2023-03-01T08:32:39;7.77;79.40
74416;SHT31;62850;42.428;25.618;2023-03-01T08:35:05;7.73;79.48
74416;SHT31;62850;42.428;25.618;2023-03-01T08:37:33;7.79;79.50
74416;SHT31;62850;42.428;25.618;2023-03-01T08:39:59;7.81;79.31
74416;SHT31;62850;42.428;25.618;2023-03-01T08:42:26;7.81;79.02
74416;SHT31;62850;42.428;25.618;2023-03-01T08:44:51;7.83;79.17
74416;SHT31;62850;42.428;25.618;2023-03-01T08:47:17;7.80;79.53
74416;SHT31;62850;42.428;25.618;2023-03-01T08:49:42;7.90;79.29
74416;SHT31;62850;42.428;25.618;2023-03-01T08:52:08;7.87;78.95
74416;SHT31;62850;42.428;25.618;2023-03-01T08:54:33;7.84;78.87
74416;SHT31;62850;42.428;25.618;2023-03-01T08:57:01;7.77;79.18
74416;SHT31;62850;42.428;25.618;2023-03-01T08:59:27;7.69;79.12
74416;SHT31;62850;42.428;25.618;2023-03-01T09:01:54;7.69;79.27
74416;SHT31;62850;42.428;25.618;2023-03-01T09:04:20;7.80;79.14
74416;SHT31;62850;42.428;25.618;2023-03-01T09:06:45;7.79;79.16
74416;SHT31;62850;42.428;25.618;2023-03-01T09:09:14;7.83;78.73
74416;SHT31;62850;42.428;25.618;2023-03-01T09:11:41;7.71;79.01
74416;SHT31;62850;42.428;25.618;2023-03-01T09:14:06;7.74;79.25
74416;SHT31;62850;42.428;25.618;2023-03-01T09:16:32;7.74;79.26
74416;SHT31;62850;42.428;25.618;2023-03-01T09:19:02;7.73;78.98
74416;SHT31;62850;42.428;25.618;2023-03-01T09:21:28;7.77;78.87
74416;SHT31;62850;42.428;25.618;2023-03-01T09:23:55;7.77;78.98
74416;SHT31;62850;42.428;25.618;2023-03-01T09:26:22;7.76;78.70
74416;SHT31;62850;42.428;25.618;2023-03-01T09:28:49;7.71;78.72
74416;SHT31;62850;42.428;25.618;2023-03-01T09:31:17;7.80;78.72
74416;SHT31;62850;42.428;25.618;2023-03-01T09:33:46;7.83;78.83
74416;SHT31;62850;42.428;25.618;2023-03-01T09:36:16;7.87;78.72
74416;SHT31;62850;42.428;25.618;2023-03-01T09:38:42;7.87;78.45
74416;SHT31;62850;42.428;25.618;2023-03-01T09:44:00;7.76;78.88
74416;SHT31;62850;42.428;25.618;2023-03-01T09:46:37;7.77;78.68
74416;SHT31;62850;42.428;25.618;2023-03-01T09:49:10;7.77;78.74
74416;SHT31;62850;42.428;25.618;2023-03-01T09:51:37;7.80;78.61
74416;SHT31;62850;42.428;25.618;2023-03-01T09:54:03;7.80;78.68
74416;SHT31;62850;42.428;25.618;2023-03-01T09:56:34;7.76;78.57
74416;SHT31;62850;42.428;25.618;2023-03-01T10:04:45;7.65;78.57
74416;SHT31;62850;42.428;25.618;2023-03-01T10:09:42;7.67;78.87
74416;SHT31;62850;42.428;25.618;2023-03-01T10:12:20;7.67;78.96
74416;SHT31;62850;42.428;25.618;2023-03-01T10:14:56;7.69;79.02
74416;SHT31;62850;42.428;25.618;2023-03-01T10:17:33;7.74;78.85
74416;SHT31;62850;42.428;25.618;2023-03-01T10:20:23;7.67;78.77
74416;SHT31;62850;42.428;25.618;2023-03-01T10:22:49;7.73;78.45
74416;SHT31;62850;42.428;25.618;2023-03-01T10:25:33;7.74;78.53
74416;SHT31;62850;42.428;25.618;2023-03-01T10:28:16;7.70;78.40
74416;SHT31;62850;42.428;25.618;2023-03-01T10:30:42;7.62;78.80
74416;SHT31;62850;42.428;25.618;2023-03-01T10:35:43;7.62;79.10
74416;SHT31;62850;42.428;25.618;2023-03-01T10:38:11;7.67;78.98
74416;SHT31;62850;42.428;25.618;2023-03-01T10:40:54;7.67;78.93
74416;SHT31;62850;42.428;25.618;2023-03-01T10:43:26;7.73;78.85
74416;SHT31;62850;42.428;25.618;2023-03-01T10:45:52;7.79;78.55
74416;SHT31;62850;42.428;25.618;2023-03-01T10:48:23;7.71;78.89
74416;SHT31;62850;42.428;25.618;2023-03-01T10:51:12;7.71;78.73
74416;SHT31;62850;42.428;25.618;2023-03-01T10:53:47;7.76;78.95
74416;SHT31;62850;42.428;25.618;2023-03-01T10:56:14;7.79;78.86
74416;SHT31;62850;42.428;25.618;2023-03-01T11:04:07;7.80;79.01
74416;SHT31;62850;42.428;25.618;2023-03-01T11:06:37;7.71;79.17
74416;SHT31;62850;42.428;25.618;2023-03-01T11:09:22;7.77;78.80
74416;SHT31;62850;42.428;25.618;2023-03-01T11:11:56;7.77;79.17
74416;SHT31;62850;42.428;25.618;2023-03-01T11:14:24;7.81;79.34
74416;SHT31;62850;42.428;25.618;2023-03-01T11:17:16;7.81;79.04
74416;SHT31;62850;42.428;25.618;2023-03-01T11:19:59;7.79;79.48
74416;SHT31;62850;42.428;25.618;2023-03-01T11:22:25;7.71;79.37
74416;SHT31;62850;42.428;25.618;2023-03-01T11:24:54;7.69;79.42
74416;SHT31;62850;42.428;25.618;2023-03-01T11:27:26;7.71;79.45
74416;SHT31;62850;42.428;25.618;2023-03-01T11:35:35;7.84;78.79
74416;SHT31;62850;42.428;25.618;2023-03-01T11:38:22;7.76;78.75
74416;SHT31;62850;42.428;25.618;2023-03-01T11:40:59;7.84;78.34
74416;SHT31;62850;42.428;25.618;2023-03-01T11:43:37;7.94;78.20
74416;SHT31;62850;42.428;25.618;2023-03-01T11:51:09;8.05;78.11
74416;SHT31;62850;42.428;25.618;2023-03-01T11:56:55;7.84;78.74
74416;SHT31;62850;42.428;25.618;2023-03-01T11:59:36;7.80;79.20
74416;SHT31;62850;42.428;25.618;2023-03-01T12:10:29;7.77;78.73
74416;SHT31;62850;42.428;25.618;2023-03-01T12:13:18;7.74;78.67
74416;SHT31;62850;42.428;25.618;2023-03-01T12:18:36;7.77;78.74
74416;SHT31;62850;42.428;25.618;2023-03-01T12:26:38;7.74;79.29
74416;SHT31;62850;42.428;25.618;2023-03-01T12:46:01;7.73;79.38
74416;SHT31;62850;42.428;25.618;2023-03-01T12:51:29;7.81;79.03
74416;SHT31;62850;42.428;25.618;2023-03-01T12:53:57;7.89;78.88
74416;SHT31;62850;42.428;25.618;2023-03-01T12:56:25;7.91;78.56
74416;SHT31;62850;42.428;25.618;2023-03-01T13:11:48;7.86;78.24
74416;SHT31;62850;42.428;25.618;2023-03-01T13:14:35;7.93;77.96
74416;SHT31;62850;42.428;25.618;2023-03-01T13:17:00;7.95;78.07
74416;SHT31;62850;42.428;25.618;2023-03-01T13:19:27;7.93;78.21
74416;SHT31;62850;42.428;25.618;2023-03-01T13:22:28;7.90;78.19
74416;SHT31;62850;42.428;25.618;2023-03-01T13:25:19;7.76;78.61
74416;SHT31;62850;42.428;25.618;2023-03-01T13:27:46;7.84;78.55
74416;SHT31;62850;42.428;25.618;2023-03-01T13:36:06;7.70;78.94
74416;SHT31;62850;42.428;25.618;2023-03-01T13:49:53;7.62;80.06
74416;SHT31;62850;42.428;25.618;2023-03-01T13:52:43;7.55;80.30
74416;SHT31;62850;42.428;25.618;2023-03-01T13:55:37;7.60;80.08
74416;SHT31;62850;42.428;25.618;2023-03-01T13:58:25;7.65;80.13
74416;SHT31;62850;42.428;25.618;2023-03-01T14:03:26;7.69;80.28
74416;SHT31;62850;42.428;25.618;2023-03-01T14:08:25;7.62;80.94
74416;SHT31;62850;42.428;25.618;2023-03-01T14:10:56;7.58;80.79
74416;SHT31;62850;42.428;25.618;2023-03-01T14:13:48;7.53;81.10
74416;SHT31;62850;42.428;25.618;2023-03-01T14:16:35;7.52;81.11
74416;SHT31;62850;42.428;25.618;2023-03-01T14:19:15;7.49;81.09
74416;SHT31;62850;42.428;25.618;2023-03-01T14:21:42;7.48;81.44
74416;SHT31;62850;42.428;25.618;2023-03-01T14:24:17;7.50;81.40
74416;SHT31;62850;42.428;25.618;2023-03-01T14:26:43;7.46;81.50
74416;SHT31;62850;42.428;25.618;2023-03-01T14:29:27;7.46;81.71
74416;SHT31;62850;42.428;25.618;2023-03-01T14:31:53;7.45;81.80
74416;SHT31;62850;42.428;25.618;2023-03-01T14:34:21;7.45;81.75
74416;SHT31;62850;42.428;25.618;2023-03-01T14:36:47;7.59;81.49
74416;SHT31;62850;42.428;25.618;2023-03-01T14:39:18;7.63;81.29
74416;SHT31;62850;42.428;25.618;2023-03-01T14:41:44;7.63;81.02
74416;SHT31;62850;42.428;25.618;2023-03-01T14:44:15;7.58;81.43
74416;SHT31;62850;42.428;25.618;2023-03-01T14:46:43;7.50;81.38
74416;SHT31;62850;42.428;25.618;2023-03-01T14:51:45;7.45;81.69
74416;SHT31;62850;42.428;25.618;2023-03-01T14:54:39;7.48;81.70
74416;SHT31;62850;42.428;25.618;2023-03-01T14:57:14;7.41;82.22
74416;SHT31;62850;42.428;25.618;2023-03-01T14:59:41;7.29;82.35
74416;SHT31;62850;42.428;25.618;2023-03-01T15:02:15;7.28;82.67
74416;SHT31;62850;42.428;25.618;2023-03-01T15:04:50;7.22;82.83
74416;SHT31;62850;42.428;25.618;2023-03-01T15:07:17;7.23;82.86
74416;SHT31;62850;42.428;25.618;2023-03-01T15:09:44;7.32;82.76
74416;SHT31;62850;42.428;25.618;2023-03-01T15:14:55;7.25;82.99
74416;SHT31;62850;42.428;25.618;2023-03-01T15:17:34;7.35;82.61
74416;SHT31;62850;42.428;25.618;2023-03-01T15:20:02;7.29;82.85
74416;SHT31;62850;42.428;25.618;2023-03-01T15:22:30;7.25;82.99
74416;SHT31;62850;42.428;25.618;2023-03-01T15:24:55;7.29;82.95
74416;SHT31;62850;42.428;25.618;2023-03-01T15:27:25;7.15;83.31
74416;SHT31;62850;42.428;25.618;2023-03-01T15:29:58;7.18;83.51
74416;SHT31;62850;42.428;25.618;2023-03-01T15:32:31;7.15;83.57
74416;SHT31;62850;42.428;25.618;2023-03-01T15:34:58;7.19;83.59
74416;SHT31;62850;42.428;25.618;2023-03-01T15:37:47;7.22;83.63
74416;SHT31;62850;42.428;25.618;2023-03-01T15:40:26;7.15;83.67
74416;SHT31;62850;42.428;25.618;2023-03-01T15:43:05;7.18;83.91
74416;SHT31;62850;42.428;25.618;2023-03-01T15:45:33;7.09;84.50
74416;SHT31;62850;42.428;25.618;2023-03-01T15:48:13;7.16;84.38
74416;SHT31;62850;42.428;25.618;2023-03-01T15:50:40;7.14;84.37
74416;SHT31;62850;42.428;25.618;2023-03-01T15:53:12;7.11;84.45
74416;SHT31;62850;42.428;25.618;2023-03-01T15:55:39;7.11;84.67
74416;SHT31;62850;42.428;25.618;2023-03-01T15:58:21;7.05;84.58
74416;SHT31;62850;42.428;25.618;2023-03-01T16:00:47;7.01;84.50
74416;SHT31;62850;42.428;25.618;2023-03-01T16:03:14;6.97;84.81
74416;SHT31;62850;42.428;25.618;2023-03-01T16:05:47;7.00;84.99
74416;SHT31;62850;42.428;25.618;2023-03-01T16:08:13;7.01;84.60
74416;SHT31;62850;42.428;25.618;2023-03-01T16:10:40;6.98;84.84
74416;SHT31;62850;42.428;25.618;2023-03-01T16:13:06;6.92;85.03
74416;SHT31;62850;42.428;25.618;2023-03-01T16:15:33;6.95;85.18
74416;SHT31;62850;42.428;25.618;2023-03-01T16:18:02;6.95;85.13
74416;SHT31;62850;42.428;25.618;2023-03-01T16:20:29;7.01;84.90
74416;SHT31;62850;42.428;25.618;2023-03-01T16:22:58;6.92;84.93
74416;SHT31;62850;42.428;25.618;2023-03-01T16:25:25;6.91;85.21
74416;SHT31;62850;42.428;25.618;2023-03-01T16:27:51;6.85;85.34
74416;SHT31;62850;42.428;25.618;2023-03-01T16:30:19;6.81;85.46
74416;SHT31;62850;42.428;25.618;2023-03-01T16:32:46;6.81;85.56
74416;SHT31;62850;42.428;25.618;2023-03-01T16:35:14;6.80;85.60
74416;SHT31;62850;42.428;25.618;2023-03-01T16:37:39;6.74;85.56
74416;SHT31;62850;42.428;25.618;2023-03-01T16:40:07;6.73;85.58
74416;SHT31;62850;42.428;25.618;2023-03-01T16:42:37;6.70;85.40
74416;SHT31;62850;42.428;25.618;2023-03-01T16:45:03;6.71;85.62
74416;SHT31;62850;42.428;25.618;2023-03-01T16:47:29;6.67;85.80
74416;SHT31;62850;42.428;25.618;2023-03-01T16:49:55;6.69;85.87
74416;SHT31;62850;42.428;25.618;2023-03-01T16:52:21;6.73;85.94
74416;SHT31;62850;42.428;25.618;2023-03-01T16:54:47;6.69;86.06
74416;SHT31;62850;42.428;25.618;2023-03-01T16:57:12;6.71;85.95
74416;SHT31;62850;42.428;25.618;2023-03-01T16:59:38;6.64;86.08
74416;SHT31;62850;42.428;25.618;2023-03-01T17:02:04;6.60;86.18
74416;SHT31;62850;42.428;25.618;2023-03-01T17:04:34;6.61;86.43
74416;SHT31;62850;42.428;25.618;2023-03-01T17:07:00;6.63;86.29
74416;SHT31;62850;42.428;25.618;2023-03-01T17:09:25;6.61;86.06
74416;SHT31;62850;42.428;25.618;2023-03-01T17:11:51;6.58;85.95
74416;SHT31;62850;42.428;25.618;2023-03-01T17:14:16;6.54;85.95
74416;SHT31;62850;42.428;25.618;2023-03-01T17:16:43;6.60;85.97
74416;SHT31;62850;42.428;25.618;2023-03-01T17:19:08;6.66;86.08
74416;SHT31;62850;42.428;25.618;2023-03-01T17:21:34;6.56;86.37
74416;SHT31;62850;42.428;25.618;2023-03-01T17:23:59;6.50;86.75
74416;SHT31;62850;42.428;25.618;2023-03-01T17:26:26;6.50;86.72
74416;SHT31;62850;42.428;25.618;2023-03-01T17:28:54;6.47;86.81
74416;SHT31;62850;42.428;25.618;2023-03-01T17:31:20;6.51;86.65
74416;SHT31;62850;42.428;25.618;2023-03-01T17:33:45;6.53;86.34
74416;SHT31;62850;42.428;25.618;2023-03-01T17:36:11;6.56;86.30
74416;SHT31;62850;42.428;25.618;2023-03-01T17:38:36;6.51;86.34
74416;SHT31;62850;42.428;25.618;2023-03-01T17:41:03;6.57;86.36
74416;SHT31;62850;42.428;25.618;2023-03-01T17:43:29;6.60;86.36
74416;SHT31;62850;42.428;25.618;2023-03-01T17:45:55;6.49;86.75
74416;SHT31;62850;42.428;25.618;2023-03-01T17:48:21;6.50;87.05
74416;SHT31;62850;42.428;25.618;2023-03-01T17:50:47;6.54;86.90
74416;SHT31;62850;42.428;25.618;2023-03-01T17:53:13;6.50;86.74